Alger, Ohio
Current Conditions -  °F | °C
As of 8:53 AM on Friday 28 Nov 2014 (Local Time) from KAOH Reporting Station
Scattered Clouds Scattered Clouds  
Wind Chill: 24°   Ceiling: Unl
Heat Index: 24°   Visibility: 10mi
Dew Point: 16°   Wind: 3mph
Humidity: 71%   Direction: 220°SW
Pressure: 30.34"   Gusts: NA
Location:  40.71°N, 83.84°W
Report Text: KAOH 281353Z AUTO 22003KT 10SM FEW029 SCT110 M04/M09 A3034 RMK AO2 SLP288 T10441089
Loading
Personal Weather Stations






























Interactive Weather Map New forecast layout! Learn more

10-Day Weather Forecast

Advertisements
Track Severe Weather on mobile